createdAt,value
2022-11-18T05:30:39.798Z,9.47
2022-11-18T05:31:39.750Z,9.46
2022-11-18T05:32:39.751Z,9.36
2022-11-18T05:33:39.737Z,9.48
2022-11-18T05:34:39.743Z,9.36
2022-11-18T05:35:39.725Z,9.31
2022-11-18T05:36:39.713Z,9.33
2022-11-18T05:37:39.706Z,9.35
2022-11-18T05:38:39.680Z,9.40
2022-11-18T05:39:39.682Z,9.32
2022-11-18T05:40:39.653Z,9.32
2022-11-18T05:41:39.647Z,9.33
2022-11-18T05:42:39.645Z,9.31
2022-11-18T05:43:39.645Z,9.31
2022-11-18T05:44:39.628Z,9.32
2022-11-18T05:45:39.598Z,9.26
2022-11-18T05:46:39.598Z,9.23
2022-11-18T05:47:39.580Z,9.29
2022-11-18T05:48:39.564Z,9.29
2022-11-18T05:49:39.598Z,9.17
2022-11-18T05:50:39.558Z,9.20
2022-11-18T05:51:39.560Z,9.23
2022-11-18T05:52:39.529Z,9.28
2022-11-18T05:53:39.534Z,9.23
2022-11-18T05:54:39.553Z,9.21
2022-11-18T05:55:39.532Z,9.18
2022-11-18T05:56:39.501Z,9.18
2022-11-18T05:57:39.468Z,9.20
2022-11-18T05:58:39.468Z,9.24
2022-11-18T05:59:39.490Z,9.23
2022-11-18T06:00:39.432Z,9.21
2022-11-18T06:01:39.443Z,9.29
2022-11-18T06:02:39.501Z,9.21
2022-11-18T06:03:39.413Z,9.23
2022-11-18T06:04:39.409Z,9.28
2022-11-18T06:05:39.388Z,9.21
2022-11-18T06:06:39.395Z,9.31
2022-11-18T06:07:39.411Z,9.29
2022-11-18T06:08:39.342Z,9.24
2022-11-18T06:09:39.367Z,9.36
2022-11-18T06:10:39.360Z,9.29
2022-11-18T06:11:39.320Z,9.29
2022-11-18T06:12:39.327Z,9.29
2022-11-18T06:13:39.319Z,9.31
2022-11-18T06:14:39.287Z,9.26
2022-11-18T06:15:39.286Z,9.31
2022-11-18T06:16:41.028Z,9.32
2022-11-18T06:17:39.270Z,9.29
2022-11-18T06:18:39.848Z,9.31
2022-11-18T06:19:39.252Z,9.26
2022-11-18T06:20:39.228Z,9.18
2022-11-18T06:21:39.209Z,9.32
2022-11-18T06:22:44.989Z,9.24
2022-11-18T06:23:40.185Z,9.29
2022-11-18T06:24:39.171Z,9.26
2022-11-18T06:25:39.165Z,9.26
2022-11-18T06:26:39.167Z,9.24
2022-11-18T06:27:39.143Z,9.18
2022-11-18T06:28:39.134Z,9.20
2022-11-18T06:29:39.136Z,9.23
2022-11-18T06:30:39.125Z,9.18
2022-11-18T06:31:39.111Z,9.23
2022-11-18T06:32:39.087Z,9.10
2022-11-18T06:33:39.098Z,9.14
2022-11-18T06:34:41.663Z,9.13
2022-11-18T06:35:39.090Z,9.21
2022-11-18T06:36:39.039Z,9.14
2022-11-18T06:37:39.038Z,9.05
2022-11-18T06:38:39.023Z,9.13
2022-11-18T06:39:39.062Z,9.14
2022-11-18T06:40:39.092Z,9.13
2022-11-18T06:41:38.994Z,9.05
2022-11-18T06:42:38.996Z,9.11
2022-11-18T06:43:38.971Z,9.08
2022-11-18T06:44:39.016Z,9.11
2022-11-18T06:45:38.953Z,9.08
2022-11-18T06:46:38.952Z,9.08
2022-11-18T06:47:38.921Z,9.05
2022-11-18T06:48:38.923Z,9.08
2022-11-18T06:49:38.898Z,9.11
2022-11-18T06:50:38.975Z,9.14
2022-11-18T06:51:38.877Z,9.05
2022-11-18T06:52:38.930Z,9.05
2022-11-18T06:53:38.871Z,9.05
2022-11-18T06:54:38.848Z,9.02
2022-11-18T06:55:38.846Z,9.01
2022-11-18T06:56:38.818Z,8.94
2022-11-18T06:57:38.847Z,8.98
2022-11-18T06:58:38.804Z,8.92
2022-11-18T06:59:38.790Z,8.96
2022-11-18T07:00:38.829Z,8.92
2022-11-18T07:01:38.795Z,8.91
2022-11-18T07:02:38.763Z,8.86
2022-11-18T07:03:38.773Z,8.77
2022-11-18T07:04:38.769Z,8.95
2022-11-18T07:05:38.747Z,8.76
2022-11-18T07:06:38.772Z,8.89
2022-11-18T07:07:41.967Z,8.83
2022-11-18T07:08:38.710Z,8.84
2022-11-18T07:09:38.688Z,8.79
2022-11-18T07:10:38.690Z,8.76
2022-11-18T07:11:38.661Z,8.74
2022-11-18T07:12:38.695Z,8.77
2022-11-18T07:13:43.338Z,8.80
2022-11-18T07:14:39.654Z,8.76
2022-11-18T07:15:38.636Z,8.76
2022-11-18T07:16:38.671Z,8.81
2022-11-18T07:17:38.586Z,8.76
2022-11-18T07:18:38.596Z,8.83
2022-11-18T07:19:38.581Z,8.87
2022-11-18T07:20:38.578Z,8.74
2022-11-18T07:21:38.600Z,8.86
2022-11-18T07:22:38.715Z,8.89
2022-11-18T07:23:38.564Z,8.76
2022-11-18T07:24:38.526Z,8.77
2022-11-18T07:25:44.027Z,8.86
2022-11-18T07:26:39.532Z,8.81
2022-11-18T07:27:38.484Z,8.86
2022-11-18T07:28:38.468Z,8.83
2022-11-18T07:29:38.493Z,8.87
2022-11-18T07:30:38.456Z,8.83
2022-11-18T07:31:38.487Z,8.87
2022-11-18T07:32:38.474Z,8.96
2022-11-18T07:33:38.412Z,8.89
2022-11-18T07:34:38.417Z,8.95
2022-11-18T07:35:38.418Z,8.92
2022-11-18T07:36:38.410Z,8.89
2022-11-18T07:37:38.455Z,8.95
2022-11-18T07:38:38.413Z,8.94
2022-11-18T07:39:38.363Z,8.99
2022-11-18T07:40:38.335Z,9.01
2022-11-18T07:41:38.374Z,9.10
2022-11-18T07:42:38.338Z,9.04
2022-11-18T07:43:38.314Z,9.08
2022-11-18T07:44:38.323Z,9.05
2022-11-18T07:45:38.401Z,9.04
2022-11-18T07:46:38.421Z,9.05
2022-11-18T07:47:38.285Z,9.05
2022-11-18T07:48:38.246Z,9.10
2022-11-18T07:49:38.240Z,9.10
2022-11-18T07:50:41.941Z,9.18
2022-11-18T07:51:39.242Z,9.26
2022-11-18T07:52:38.236Z,9.31
2022-11-18T07:53:38.214Z,9.33
2022-11-18T07:54:38.719Z,9.36
2022-11-18T07:55:38.174Z,9.33
2022-11-18T07:56:38.176Z,9.42
2022-11-18T07:57:38.174Z,9.42
2022-11-18T07:58:38.146Z,9.46
2022-11-18T07:59:38.185Z,9.50
2022-11-18T08:00:38.147Z,9.50
2022-11-18T08:01:38.176Z,9.58
2022-11-18T08:02:38.099Z,9.60
2022-11-18T08:03:38.105Z,9.57
2022-11-18T08:04:38.194Z,9.58
2022-11-18T08:05:38.147Z,9.61
2022-11-18T08:06:38.093Z,9.66
2022-11-18T08:09:58.516Z,9.58
2022-11-18T08:10:58.460Z,9.56
2022-11-18T08:11:58.483Z,9.42
2022-11-18T08:12:58.432Z,9.58
2022-11-18T08:13:58.471Z,9.65
2022-11-18T08:14:58.446Z,9.48
2022-11-18T08:15:58.405Z,9.57
2022-11-18T08:16:58.438Z,9.48
2022-11-18T08:17:58.385Z,9.50
2022-11-18T08:18:58.369Z,9.61
2022-11-18T08:19:58.387Z,9.61
2022-11-18T08:20:58.372Z,9.57
2022-11-18T08:21:58.382Z,9.60
2022-11-18T08:22:58.322Z,9.56
2022-11-18T08:23:58.320Z,9.51
2022-11-18T08:24:58.305Z,9.57
2022-11-18T08:25:58.323Z,9.51
2022-11-18T08:26:58.302Z,9.58
2022-11-18T08:27:58.308Z,9.66
2022-11-18T08:28:58.425Z,9.51
2022-11-18T08:29:58.256Z,9.64
2022-11-18T08:30:58.246Z,9.58
2022-11-18T08:31:58.229Z,9.72
2022-11-18T08:32:58.240Z,9.65
2022-11-18T08:33:58.210Z,9.61
2022-11-18T08:34:58.212Z,9.61
2022-11-18T08:35:58.213Z,9.61
2022-11-18T08:36:58.196Z,9.71
2022-11-18T08:37:58.164Z,9.68
2022-11-18T08:38:58.151Z,9.64
2022-11-18T08:39:58.156Z,9.72
2022-11-18T08:40:58.141Z,9.78
2022-11-18T08:41:58.168Z,9.75
2022-11-18T08:47:38.985Z,9.74
2022-11-18T08:48:38.945Z,9.87
2022-11-18T08:49:38.943Z,9.86
2022-11-18T08:50:38.921Z,9.81
2022-11-18T08:51:38.910Z,9.90
2022-11-18T08:52:38.940Z,9.91
2022-11-18T08:53:38.911Z,9.97
2022-11-18T08:54:38.897Z,9.94
2022-11-18T08:55:38.959Z,9.99
2022-11-18T08:56:38.860Z,9.94
2022-11-18T08:57:38.868Z,10.08
2022-11-18T08:58:38.838Z,10.05
2022-11-18T08:59:38.847Z,10.08
2022-11-18T09:00:38.837Z,10.07
2022-11-18T09:01:38.851Z,10.11
2022-11-18T09:02:38.791Z,10.20
2022-11-18T09:04:58.849Z,10.23
2022-11-18T09:05:49.774Z,10.26
2022-11-18T09:14:39.097Z,10.36
2022-11-18T09:15:12.997Z,10.41
2022-11-18T09:15:51.177Z,10.45
2022-11-18T09:16:50.151Z,10.51
2022-11-18T09:17:50.147Z,10.47
2022-11-18T09:18:50.147Z,10.56
2022-11-18T09:19:50.148Z,10.68
2022-11-18T09:20:50.148Z,10.74
2022-11-18T09:21:50.124Z,10.74
2022-11-18T09:22:50.084Z,10.91
2022-11-18T09:23:50.075Z,10.96
2022-11-18T09:24:50.100Z,11.15
2022-11-18T09:25:50.064Z,11.10
2022-11-18T09:26:50.087Z,11.04
2022-11-18T09:27:50.026Z,11.03
2022-11-18T09:28:50.068Z,11.03
2022-11-18T09:29:50.034Z,10.99
2022-11-18T09:30:49.997Z,11.02
2022-11-18T09:31:49.981Z,11.11
2022-11-18T09:32:50.024Z,11.14
2022-11-18T09:33:49.964Z,11.27
2022-11-18T09:34:49.958Z,11.33
2022-11-18T09:35:49.967Z,11.44
2022-11-18T09:36:49.942Z,11.52
2022-11-18T09:37:49.937Z,11.62
2022-11-18T09:38:52.928Z,11.57
2022-11-18T09:39:49.900Z,11.73
2022-11-18T09:40:49.890Z,11.85
2022-11-18T09:41:49.922Z,11.86
2022-11-18T09:42:49.880Z,11.88
2022-11-18T09:43:49.880Z,11.78
2022-11-18T09:44:49.841Z,11.80
2022-11-18T09:45:49.859Z,11.85
2022-11-18T09:46:49.820Z,11.88
2022-11-18T09:47:49.881Z,11.98
2022-11-18T09:48:49.805Z,12.09
2022-11-18T09:49:49.803Z,12.21
2022-11-18T09:50:50.852Z,12.13
2022-11-18T09:51:49.776Z,12.07
2022-11-18T09:52:49.782Z,12.24
2022-11-18T09:53:49.777Z,12.31
2022-11-18T09:54:49.738Z,12.28
2022-11-18T09:55:49.749Z,12.31
2022-11-18T09:56:49.782Z,12.17
2022-11-18T09:57:49.703Z,12.05
2022-11-18T09:58:49.688Z,11.99
2022-11-18T09:59:49.720Z,12.09
2022-11-18T10:00:49.678Z,12.13
2022-11-18T10:01:49.786Z,12.13
2022-11-18T10:02:49.649Z,12.14
2022-11-18T10:03:49.637Z,12.12
2022-11-18T10:04:49.626Z,11.98
2022-11-18T10:05:49.664Z,11.95
2022-11-18T10:06:49.624Z,11.83
2022-11-18T10:07:49.588Z,11.88
2022-11-18T10:08:49.608Z,11.82
2022-11-18T10:09:49.572Z,11.83
2022-11-18T10:10:49.558Z,11.85
2022-11-18T10:11:52.103Z,11.76
2022-11-18T10:12:49.539Z,11.91
2022-11-18T10:13:49.544Z,11.94
2022-11-18T10:14:49.542Z,11.82
2022-11-18T10:15:49.501Z,11.82
2022-11-18T10:16:51.760Z,11.88
2022-11-18T10:17:50.581Z,11.76
2022-11-18T10:19:04.840Z,11.70
2022-11-18T10:19:50.498Z,11.72
2022-11-18T10:20:49.455Z,11.73
2022-11-18T10:21:49.495Z,11.99
2022-11-18T10:22:49.428Z,12.13
2022-11-18T10:23:49.456Z,12.28
2022-11-18T10:24:49.428Z,12.34
2022-11-18T10:25:49.438Z,12.41
2022-11-18T10:26:49.419Z,12.47
2022-11-18T10:27:49.404Z,12.59
2022-11-18T10:28:49.360Z,12.67
2022-11-18T10:29:49.372Z,12.54
2022-11-18T10:30:49.362Z,12.71
2022-11-18T10:31:49.361Z,12.54
2022-11-18T10:32:49.339Z,12.54
2022-11-18T10:33:49.366Z,12.31
2022-11-18T10:34:49.307Z,12.31
2022-11-18T10:35:49.303Z,12.38
2022-11-18T10:36:49.275Z,12.41
2022-11-18T10:38:09.555Z,12.60
2022-11-18T10:38:50.447Z,12.67
2022-11-18T10:39:49.243Z,12.68
2022-11-18T10:40:49.251Z,12.70
2022-11-18T10:41:49.241Z,12.67
2022-11-18T10:42:49.230Z,12.71
2022-11-18T10:43:49.215Z,12.89
2022-11-18T10:44:49.279Z,12.93
2022-11-18T10:45:49.188Z,13.04
2022-11-18T10:46:49.207Z,12.92
2022-11-18T10:47:49.157Z,13.04
2022-11-18T10:48:49.145Z,13.05
2022-11-18T10:49:49.212Z,13.12
2022-11-18T10:50:54.726Z,13.08
2022-11-18T10:51:50.176Z,13.05
2022-11-18T10:52:49.103Z,12.97
2022-11-18T10:53:49.107Z,12.95
2022-11-18T10:54:49.099Z,13.05
2022-11-18T10:55:49.107Z,13.04
2022-11-18T10:56:52.252Z,13.01
2022-11-18T10:57:50.047Z,13.08
2022-11-18T10:58:49.038Z,13.04
2022-11-18T10:59:49.048Z,12.95
2022-11-18T11:00:49.033Z,12.96
2022-11-18T11:01:49.127Z,13.03
2022-11-18T11:02:49.013Z,13.03
2022-11-18T11:03:49.019Z,12.96
2022-11-18T11:04:48.981Z,12.95
2022-11-18T11:05:48.988Z,12.86
2022-11-18T11:06:48.989Z,12.77
2022-11-18T11:07:48.964Z,12.77
2022-11-18T11:08:48.943Z,12.77
2022-11-18T11:09:48.917Z,12.82
2022-11-18T11:10:52.645Z,12.75
2022-11-18T11:11:48.898Z,12.74
2022-11-18T11:12:48.940Z,12.68
2022-11-18T11:13:48.896Z,12.74
2022-11-18T11:14:48.879Z,12.74
2022-11-18T11:15:48.876Z,12.70
2022-11-18T11:16:48.876Z,12.74
2022-11-18T11:17:48.920Z,12.68
2022-11-18T11:18:48.845Z,12.68
2022-11-18T11:19:48.843Z,12.75
2022-11-18T11:20:48.802Z,12.78
2022-11-18T11:21:48.831Z,12.87
2022-11-18T11:22:48.793Z,12.72
2022-11-18T11:23:48.795Z,12.71
2022-11-18T11:24:48.822Z,12.65
2022-11-18T11:28:49.729Z,12.79
2022-11-18T11:29:48.706Z,12.89
2022-11-18T11:30:48.697Z,12.79
2022-11-18T11:31:48.693Z,12.97
2022-11-18T11:32:48.677Z,13.00
2022-11-18T11:33:48.658Z,12.96
2022-11-18T11:34:48.665Z,13.05
2022-11-18T11:35:48.635Z,13.10
2022-11-18T11:36:48.639Z,13.05
2022-11-18T11:37:48.628Z,13.08
2022-11-18T11:38:48.622Z,13.20
2022-11-18T11:39:48.593Z,13.11
2022-11-18T11:40:48.587Z,13.11
2022-11-18T11:41:48.566Z,13.19
2022-11-18T11:42:48.583Z,13.19
2022-11-18T11:43:48.571Z,13.10
2022-11-18T11:44:48.563Z,13.11
2022-11-18T11:45:48.548Z,13.12
2022-11-18T11:46:48.519Z,13.04
2022-11-18T11:47:48.522Z,13.08
2022-11-18T11:48:48.527Z,12.97
2022-11-18T11:49:48.484Z,12.92
2022-11-18T11:50:54.865Z,12.93
2022-11-18T11:51:49.484Z,12.93
2022-11-18T11:52:48.477Z,12.93
2022-11-18T11:53:48.468Z,12.78
2022-11-18T11:54:48.448Z,12.78
2022-11-18T11:55:48.419Z,12.96
2022-11-18T11:56:48.410Z,12.95
2022-11-18T11:57:48.401Z,12.89
2022-11-18T11:58:48.401Z,12.95
2022-11-18T11:59:48.398Z,12.96
2022-11-18T12:00:48.382Z,13.00
2022-11-18T12:01:48.353Z,12.95
2022-11-18T12:02:48.375Z,12.96
2022-11-18T12:03:51.888Z,12.82
2022-11-18T12:04:48.343Z,12.92
2022-11-18T12:05:48.309Z,12.90
2022-11-18T12:06:48.312Z,12.87
2022-11-18T12:07:48.366Z,12.78
2022-11-18T12:08:48.309Z,12.78
2022-11-18T12:09:48.297Z,12.77
2022-11-18T12:10:48.261Z,12.70
2022-11-18T12:11:48.246Z,12.74
2022-11-18T12:12:48.236Z,12.67
2022-11-18T12:13:48.236Z,12.67
2022-11-18T12:14:48.253Z,12.67
2022-11-18T12:15:48.203Z,12.71
2022-11-18T12:16:48.190Z,12.71
2022-11-18T12:17:48.181Z,12.72
2022-11-18T12:18:48.174Z,12.72
2022-11-18T12:19:48.181Z,12.74
2022-11-18T12:20:48.263Z,12.72
2022-11-18T12:21:48.141Z,12.56
2022-11-18T12:22:48.130Z,12.54
2022-11-18T12:23:48.132Z,12.38
2022-11-18T12:24:48.107Z,12.45
2022-11-18T12:25:48.112Z,12.42
2022-11-18T12:26:48.110Z,12.47
2022-11-18T12:27:48.082Z,12.54
2022-11-18T12:28:48.075Z,12.53
2022-11-18T12:29:48.049Z,12.49
2022-11-18T12:30:48.034Z,12.46
2022-11-18T12:31:48.023Z,12.45
2022-11-18T12:32:48.043Z,12.53
2022-11-18T12:33:48.005Z,12.52
2022-11-18T12:34:48.014Z,12.54
2022-11-18T12:35:47.976Z,12.54
2022-11-18T12:36:47.990Z,12.52
2022-11-18T12:37:47.953Z,12.60
2022-11-18T12:38:47.951Z,12.59
2022-11-18T12:39:47.955Z,12.67
2022-11-18T12:40:52.754Z,12.68
2022-11-18T12:41:48.948Z,12.71
2022-11-18T12:42:47.906Z,12.65
2022-11-18T12:43:47.918Z,12.64
2022-11-18T12:44:47.899Z,12.64
2022-11-18T12:45:47.898Z,12.60
2022-11-18T12:46:47.882Z,12.59
2022-11-18T12:47:47.842Z,12.59
2022-11-18T12:48:47.832Z,12.59
2022-11-18T12:49:47.847Z,12.67
2022-11-18T12:50:47.872Z,12.65
2022-11-18T12:51:47.812Z,12.60
2022-11-18T12:52:47.788Z,12.56
2022-11-18T12:53:47.833Z,12.57
2022-11-18T12:54:47.771Z,12.54
2022-11-18T12:55:47.774Z,12.62
2022-11-18T12:56:47.787Z,12.65
2022-11-18T12:57:47.755Z,12.60
2022-11-18T12:58:47.742Z,12.71
2022-11-18T12:59:47.710Z,12.65
2022-11-18T13:00:47.781Z,12.56
2022-11-18T13:01:47.689Z,12.57
2022-11-18T13:02:47.707Z,12.47
2022-11-18T13:03:47.672Z,12.56
2022-11-18T13:04:53.033Z,12.45
2022-11-18T13:05:48.668Z,12.50
2022-11-18T13:06:47.649Z,12.56
2022-11-18T13:07:47.628Z,12.57
2022-11-18T13:08:47.627Z,12.59
2022-11-18T13:09:47.654Z,12.53
2022-11-18T13:10:50.481Z,12.49
2022-11-18T13:11:48.657Z,12.53
2022-11-18T13:12:47.569Z,12.57
2022-11-18T13:13:47.580Z,12.53
2022-11-18T13:14:47.550Z,12.56
2022-11-18T13:15:47.548Z,12.53
2022-11-18T13:16:47.578Z,12.59
2022-11-18T13:17:47.540Z,12.59
2022-11-18T13:18:47.521Z,12.52
2022-11-18T13:19:47.499Z,12.57
2022-11-18T13:20:47.535Z,12.57
2022-11-18T13:21:47.468Z,12.57
2022-11-18T13:22:47.480Z,12.62
2022-11-18T13:23:47.463Z,12.64
2022-11-18T13:24:47.438Z,12.54
2022-11-18T13:25:47.434Z,12.60
2022-11-18T13:26:47.420Z,12.50
2022-11-18T13:27:47.418Z,12.53
2022-11-18T13:28:47.399Z,12.46
2022-11-18T13:29:52.651Z,12.37
2022-11-18T13:30:48.387Z,12.42
2022-11-18T13:31:47.391Z,12.41
2022-11-18T13:32:47.361Z,12.39
2022-11-18T13:33:47.363Z,12.32
2022-11-18T13:34:47.337Z,12.29
2022-11-18T13:35:47.330Z,12.39
2022-11-18T13:36:47.345Z,12.39
2022-11-18T13:37:47.295Z,12.29
2022-11-18T13:38:47.282Z,12.41
2022-11-18T13:39:47.284Z,12.42
2022-11-18T13:40:47.283Z,12.42
2022-11-18T13:41:47.249Z,12.35
2022-11-18T13:42:47.248Z,12.45
2022-11-18T13:43:51.500Z,12.32
2022-11-18T13:44:48.230Z,12.41
2022-11-18T13:45:47.232Z,12.37
2022-11-18T13:46:47.194Z,12.37
2022-11-18T13:47:47.182Z,12.41
2022-11-18T13:48:47.186Z,12.46
2022-11-18T13:49:50.275Z,12.41
2022-11-18T13:50:47.165Z,12.49
2022-11-18T13:51:47.143Z,12.41
2022-11-18T13:52:47.140Z,12.45
2022-11-18T13:53:47.128Z,12.54
2022-11-18T13:54:47.102Z,12.46
2022-11-18T13:55:47.109Z,12.46
2022-11-18T13:56:47.110Z,12.38
2022-11-18T13:57:47.071Z,12.35
2022-11-18T13:59:48.128Z,12.46
2022-11-18T14:00:47.131Z,12.46
2022-11-18T14:01:47.052Z,12.53
2022-11-18T14:02:47.067Z,12.39
2022-11-18T14:03:47.024Z,12.42
2022-11-18T14:04:46.997Z,12.45
2022-11-18T14:05:46.993Z,12.47
2022-11-18T14:06:46.982Z,12.42
2022-11-18T14:07:47.043Z,12.47
2022-11-18T14:08:46.989Z,12.39
2022-11-18T14:09:47.002Z,12.39
2022-11-18T14:10:46.935Z,12.52
2022-11-18T14:11:46.920Z,12.41
2022-11-18T14:12:46.916Z,12.46
2022-11-18T14:13:46.920Z,12.37
2022-11-18T14:14:46.892Z,12.46
2022-11-18T14:15:46.880Z,12.41
2022-11-18T14:16:46.884Z,12.42
2022-11-18T14:17:46.895Z,12.42
2022-11-18T14:18:46.855Z,12.35
2022-11-18T14:19:46.836Z,12.38
2022-11-18T14:20:46.821Z,12.42
2022-11-18T14:21:46.815Z,12.49
2022-11-18T14:22:47.114Z,12.41
2022-11-18T14:23:46.788Z,12.49
2022-11-18T14:24:46.788Z,12.37
2022-11-18T14:25:46.776Z,12.39
2022-11-18T14:26:46.763Z,12.41
2022-11-18T14:27:46.771Z,12.39
2022-11-18T14:28:46.751Z,12.42
2022-11-18T14:29:46.772Z,12.47
2022-11-18T14:30:46.713Z,12.34
2022-11-18T14:31:46.705Z,12.23
2022-11-18T14:32:46.720Z,12.34
2022-11-18T14:33:46.714Z,12.28
2022-11-18T14:34:46.662Z,12.23
2022-11-18T14:35:46.652Z,12.37
2022-11-18T14:36:46.644Z,12.23
2022-11-18T14:37:46.631Z,12.35
2022-11-18T14:39:47.618Z,12.27
2022-11-18T14:40:46.611Z,12.32
2022-11-18T14:41:46.604Z,12.31
2022-11-18T14:42:46.582Z,12.24
2022-11-18T14:43:46.566Z,12.47
2022-11-18T14:44:46.573Z,12.41
2022-11-18T14:45:46.568Z,12.28
2022-11-18T14:46:46.550Z,12.42
2022-11-18T14:47:46.520Z,12.41
2022-11-18T14:48:46.502Z,12.29
2022-11-18T14:49:46.565Z,12.29
2022-11-18T14:50:46.494Z,12.27
2022-11-18T14:51:46.520Z,12.34
2022-11-18T14:52:46.467Z,12.23
2022-11-18T14:53:46.458Z,12.24
2022-11-18T14:54:46.441Z,12.21
2022-11-18T14:55:46.451Z,12.10
2022-11-18T14:56:46.416Z,12.20
2022-11-18T14:57:46.431Z,12.16
2022-11-18T14:58:46.400Z,12.14
2022-11-18T14:59:46.476Z,12.14
2022-11-18T15:00:46.434Z,12.12
2022-11-18T15:01:46.470Z,12.14
2022-11-18T15:02:46.413Z,12.16
2022-11-18T15:03:46.355Z,12.16
2022-11-18T15:04:46.352Z,12.13
2022-11-18T15:05:46.373Z,12.05
2022-11-18T15:06:46.310Z,12.04
2022-11-18T15:07:46.448Z,11.94
2022-11-18T15:08:46.291Z,11.95
2022-11-18T15:09:46.346Z,11.95
2022-11-18T15:10:46.288Z,11.85
2022-11-18T15:11:46.259Z,11.91
2022-11-18T15:12:46.250Z,11.82
2022-11-18T15:13:46.233Z,11.83
2022-11-18T15:14:46.250Z,11.75
2022-11-18T15:15:46.233Z,11.73
2022-11-18T15:16:46.235Z,11.79
2022-11-18T15:17:48.523Z,11.67
2022-11-18T15:18:47.180Z,11.72
2022-11-18T15:19:46.170Z,11.64
2022-11-18T15:20:46.151Z,11.69
2022-11-18T15:21:46.162Z,11.67
2022-11-18T15:22:46.186Z,11.60
2022-11-18T15:23:46.128Z,11.57
2022-11-18T15:24:46.109Z,11.61
2022-11-18T15:25:46.125Z,11.49
2022-11-18T15:26:46.104Z,11.51
2022-11-18T15:27:46.077Z,11.58
2022-11-18T15:28:46.081Z,11.55
2022-11-18T15:29:46.086Z,11.49
2022-11-18T15:30:46.047Z,11.54
2022-11-18T15:31:46.055Z,11.52
2022-11-18T15:32:46.022Z,11.51
2022-11-18T15:33:46.013Z,11.43
2022-11-18T15:34:46.000Z,11.51
2022-11-18T15:35:46.027Z,11.43
2022-11-18T15:36:46.017Z,11.46
2022-11-18T15:37:46.006Z,11.42
2022-11-18T15:38:45.959Z,11.43
2022-11-18T15:39:45.954Z,11.40
2022-11-18T15:40:45.936Z,11.47
2022-11-18T15:41:45.947Z,11.42
2022-11-18T15:42:51.715Z,11.43
2022-11-18T15:43:46.924Z,11.43
2022-11-18T15:44:45.889Z,11.40
2022-11-18T15:45:45.896Z,11.43
2022-11-18T15:46:45.878Z,11.28
2022-11-18T15:47:45.888Z,11.28
2022-11-18T15:48:45.879Z,11.29
2022-11-18T15:49:45.858Z,11.28
2022-11-18T15:50:45.830Z,11.32
2022-11-18T15:51:45.841Z,11.28
2022-11-18T15:52:45.801Z,11.25
2022-11-18T15:53:45.811Z,11.18
2022-11-18T15:54:45.785Z,11.22
2022-11-18T15:55:45.785Z,11.24
2022-11-18T15:56:45.783Z,11.21
2022-11-18T15:57:45.752Z,11.18
2022-11-18T15:58:45.739Z,11.17
2022-11-18T15:59:45.728Z,11.18
2022-11-18T16:00:45.791Z,11.17
2022-11-18T16:01:45.716Z,11.18
2022-11-18T16:02:45.698Z,11.11
2022-11-18T16:03:45.687Z,11.00
2022-11-18T16:04:45.694Z,11.09
2022-11-18T16:05:45.670Z,11.03
2022-11-18T16:06:45.651Z,11.06
2022-11-18T16:07:45.699Z,11.04
2022-11-18T16:08:45.627Z,11.04
2022-11-18T16:09:45.671Z,10.99
2022-11-18T16:10:45.602Z,11.00
2022-11-18T16:11:45.598Z,10.96
2022-11-18T16:12:45.585Z,10.99
2022-11-18T16:13:45.593Z,10.96
2022-11-18T16:14:45.582Z,10.94
2022-11-18T16:15:45.572Z,10.88
2022-11-18T16:16:45.542Z,10.91
2022-11-18T16:17:45.547Z,10.89
2022-11-18T16:18:45.522Z,10.85
2022-11-18T16:19:45.509Z,10.84
2022-11-18T16:20:45.510Z,10.85
2022-11-18T16:21:45.507Z,10.86
2022-11-18T16:22:45.474Z,10.91
2022-11-18T16:23:45.472Z,10.89
2022-11-18T16:24:48.504Z,10.88
2022-11-18T16:25:45.464Z,10.86
2022-11-18T16:26:45.492Z,10.91
2022-11-18T16:27:45.439Z,10.96
2022-11-18T16:28:45.430Z,10.86
2022-11-18T16:29:45.395Z,10.86
2022-11-18T16:30:45.384Z,10.82
2022-11-18T16:31:45.382Z,10.85
2022-11-18T16:32:45.381Z,10.82
2022-11-18T16:33:45.361Z,10.71
2022-11-18T16:34:45.362Z,10.79
2022-11-18T16:35:45.334Z,10.74
2022-11-18T16:36:45.318Z,10.71
2022-11-18T16:37:45.318Z,10.76
2022-11-18T16:38:45.325Z,10.68
2022-11-18T16:39:45.309Z,10.79
2022-11-18T16:40:45.293Z,10.81
2022-11-18T16:41:45.336Z,10.74
2022-11-18T16:42:45.255Z,10.74
2022-11-18T16:43:45.250Z,10.79
2022-11-18T16:44:45.245Z,10.78
2022-11-18T16:45:45.248Z,10.74
2022-11-18T16:46:45.247Z,10.84
2022-11-18T16:47:45.204Z,10.74
2022-11-18T16:48:45.187Z,10.78
2022-11-18T16:49:45.178Z,10.71
2022-11-18T16:50:45.197Z,10.70
2022-11-18T16:51:45.163Z,10.82
2022-11-18T16:52:45.166Z,10.74
2022-11-18T16:53:45.135Z,10.73
2022-11-18T16:54:46.002Z,10.79
2022-11-18T16:55:45.117Z,10.67
2022-11-18T16:56:45.124Z,10.76
2022-11-18T16:57:45.254Z,10.63
2022-11-18T16:58:45.083Z,10.68
2022-11-18T16:59:45.071Z,10.68
2022-11-18T17:01:16.695Z,10.63
2022-11-18T17:01:46.193Z,10.68
2022-11-18T17:02:45.136Z,10.67
2022-11-18T17:03:45.028Z,10.67
2022-11-18T17:04:45.015Z,10.63
2022-11-18T17:05:45.019Z,10.64
2022-11-18T17:06:45.014Z,10.64
2022-11-18T17:07:45.100Z,10.52
2022-11-18T17:08:44.991Z,10.55
2022-11-18T17:09:44.994Z,10.61
2022-11-18T17:10:44.945Z,10.52
2022-11-18T17:11:44.941Z,10.52
2022-11-18T17:12:44.956Z,10.63
2022-11-18T17:17:17.022Z,10.48
2022-11-18T17:18:16.999Z,10.48
2022-11-18T17:19:17.227Z,10.51
2022-11-18T17:20:16.963Z,10.47
2022-11-18T17:21:16.946Z,10.52
2022-11-18T17:22:16.949Z,10.44
2022-11-18T17:23:16.934Z,10.52
2022-11-18T17:24:17.257Z,10.52
2022-11-18T17:25:16.926Z,10.52
2022-11-18T17:26:16.895Z,10.56
2022-11-18T17:27:16.876Z,10.47
2022-11-18T17:28:16.863Z,10.56
2022-11-18T17:29:17.310Z,10.52
2022-11-18T17:30:16.858Z,10.51
2022-11-18T17:31:16.829Z,10.52
2022-11-18T17:32:16.819Z,10.51
2022-11-18T17:33:16.821Z,10.44
2022-11-18T17:34:17.239Z,10.53
2022-11-18T17:35:16.799Z,10.42
2022-11-18T17:36:16.901Z,10.51
2022-11-18T17:37:16.871Z,10.45
2022-11-18T17:38:16.764Z,10.47
2022-11-18T17:39:17.150Z,10.47
2022-11-18T17:40:16.749Z,10.48
2022-11-18T17:41:16.780Z,10.47
2022-11-18T17:42:16.836Z,10.34
2022-11-18T17:43:16.721Z,10.51
2022-11-18T17:44:17.191Z,10.53
2022-11-18T17:45:16.754Z,10.42
2022-11-18T17:46:16.660Z,10.48
2022-11-18T17:47:16.712Z,10.36
2022-11-18T17:48:16.644Z,10.36
2022-11-18T17:49:16.657Z,10.40
2022-11-18T17:50:16.670Z,10.38
2022-11-18T17:51:16.713Z,10.30
2022-11-18T17:52:16.603Z,10.30
2022-11-18T17:53:16.586Z,10.32
2022-11-18T17:54:16.745Z,10.33
2022-11-18T17:55:16.572Z,10.30
2022-11-18T17:56:16.575Z,10.33
2022-11-18T17:57:16.613Z,10.33
2022-11-18T17:58:16.597Z,10.34
2022-11-18T17:59:16.593Z,10.33
2022-11-18T18:00:16.535Z,10.32
2022-11-18T18:01:16.584Z,10.36
2022-11-18T18:02:16.492Z,10.36
2022-11-18T18:03:16.488Z,10.36
2022-11-18T18:04:16.898Z,10.40
2022-11-18T18:05:16.522Z,10.32
2022-11-18T18:06:16.459Z,10.34
2022-11-18T18:07:16.481Z,10.34
2022-11-18T18:08:16.430Z,10.34
2022-11-18T18:09:16.431Z,10.36
2022-11-18T18:10:16.429Z,10.27
2022-11-18T18:11:16.414Z,10.27
2022-11-18T18:12:16.387Z,10.18
2022-11-18T18:13:16.382Z,10.25
2022-11-18T18:14:16.779Z,10.08
2022-11-18T18:15:16.368Z,10.04
2022-11-18T18:16:16.339Z,10.11
2022-11-18T18:17:16.344Z,10.08
2022-11-18T18:18:16.326Z,10.07
2022-11-18T18:19:16.304Z,10.12
2022-11-18T18:20:16.303Z,10.08
2022-11-18T18:21:16.301Z,10.01
2022-11-18T18:22:16.290Z,10.05
2022-11-18T18:23:16.263Z,10.05
2022-11-18T18:24:16.736Z,10.01
2022-11-18T18:25:16.261Z,9.97
2022-11-18T18:26:16.240Z,10.04
2022-11-18T18:27:16.230Z,10.17
2022-11-18T18:28:16.215Z,10.08
2022-11-18T18:29:16.201Z,9.93
2022-11-18T18:30:16.203Z,10.09
2022-11-18T18:31:16.176Z,10.02
2022-11-18T18:32:16.162Z,10.01
2022-11-18T18:33:16.156Z,9.96
2022-11-18T18:34:16.635Z,9.96
2022-11-18T18:35:16.133Z,9.97
2022-11-18T18:36:16.149Z,9.91
2022-11-18T18:37:16.129Z,9.94
2022-11-18T18:38:16.274Z,9.91
2022-11-18T18:39:16.110Z,9.94
2022-11-18T18:40:16.088Z,9.99
2022-11-18T18:41:16.077Z,9.97
2022-11-18T18:42:16.062Z,9.99
2022-11-18T18:43:16.047Z,9.97
2022-11-18T18:44:18.792Z,9.84
2022-11-18T18:45:16.049Z,9.81
2022-11-18T18:46:16.018Z,9.83
2022-11-18T18:47:16.030Z,9.84
2022-11-18T18:48:15.997Z,9.89
2022-11-18T18:49:15.988Z,9.89
2022-11-18T18:50:15.973Z,9.93
2022-11-18T18:51:15.997Z,9.96
2022-11-18T18:52:15.971Z,9.96
2022-11-18T18:53:15.956Z,9.91